Time;durP1;ratioP1;P1;durP2;ratioP2;P2;SDS_P1;SDS_P2;PMS_P1;PMS_P2;Temp;Humidity;BMP_temperature;BMP_pressure;BME280_temperature;BME280_humidity;BME280_pressure;Samples;Min_cycle;Max_cycle;Signal;HPM_P1;HPM_P2
2023/09/15 00:01:24;;;;;;;7.15;2.10;;;;;;;;;;6236130;28;20304;-70
2023/09/15 00:04:29;;;;;;;13.82;2.70;;;;;;;;;;6233226;28;20308;-71
2023/09/15 00:07:33;;;;;;;6.97;2.22;;;;;;;;;;6235615;28;20325;-70
2023/09/15 00:10:40;;;;;;;7.32;2.08;;;;;;;;;;6225407;28;20308;-70
2023/09/15 00:13:45;;;;;;;9.45;2.03;;;;;;;;;;6211101;28;20309;-71
2023/09/15 00:16:49;;;;;;;2.42;2.10;;;;;;;;;;6210302;28;20285;-69
2023/09/15 00:19:54;;;;;;;2.95;2.13;;;;;;;;;;6210038;28;20491;-70
2023/09/15 00:22:58;;;;;;;3.03;1.80;;;;;;;;;;6210351;28;20304;-70
2023/09/15 00:26:02;;;;;;;5.05;2.20;;;;;;;;;;6210762;28;20460;-70
2023/09/15 00:29:07;;;;;;;5.70;2.30;;;;;;;;;;6210089;28;20336;-72
2023/09/15 00:32:12;;;;;;;1.95;1.80;;;;;;;;;;6225054;28;20300;-69
2023/09/15 00:35:19;;;;;;;6.75;1.80;;;;;;;;;;6210219;28;20301;-70
2023/09/15 00:38:23;;;;;;;2.35;1.90;;;;;;;;;;6209894;28;20301;-71
2023/09/15 00:41:27;;;;;;;1.75;1.60;;;;;;;;;;6225886;28;20289;-70
2023/09/15 00:44:31;;;;;;;2.75;1.90;;;;;;;;;;6223056;28;20292;-70
2023/09/15 00:47:36;;;;;;;3.45;1.90;;;;;;;;;;6233771;28;20295;-70
2023/09/15 00:50:41;;;;;;;1.90;1.90;;;;;;;;;;6234409;28;20296;-69
2023/09/15 00:53:45;;;;;;;2.05;1.95;;;;;;;;;;6234145;28;20616;-69
2023/09/15 00:56:49;;;;;;;2.35;1.70;;;;;;;;;;6234200;28;20304;-69
2023/09/15 00:59:54;;;;;;;5.80;1.70;;;;;;;;;;6233889;28;20304;-70
2023/09/15 01:02:58;;;;;;;5.07;2.33;;;;;;;;;;6232031;28;20314;-69
2023/09/15 01:06:03;;;;;;;2.40;1.70;;;;;;;;;;6249126;28;20419;-70
2023/09/15 01:09:08;;;;;;;3.25;2.00;;;;;;;;;;6249035;28;20312;-71
2023/09/15 01:12:11;;;;;;;5.57;1.80;;;;;;;;;;6234241;28;20304;-69
2023/09/15 01:15:16;;;;;;;8.05;1.92;;;;;;;;;;6249728;28;20317;-71
2023/09/15 01:18:23;;;;;;;7.68;1.77;;;;;;;;;;6231753;28;20296;-69
2023/09/15 01:22:04;;;;;;;7.93;1.95;;;;;;;;;;6233770;28;20245;-69
2023/09/15 01:25:21;;;;;;;3.97;1.67;;;;;;;;;;6231529;28;20316;-69
2023/09/15 01:28:38;;;;;;;3.85;1.50;;;;;;;;;;6233140;28;20288;-69
2023/09/15 01:31:44;;;;;;;5.40;1.80;;;;;;;;;;6233868;28;20309;-70
2023/09/15 01:34:49;;;;;;;2.65;1.40;;;;;;;;;;6232126;28;20304;-69
2023/09/15 01:37:53;;;;;;;2.95;1.45;;;;;;;;;;6231740;28;20440;-69
2023/09/15 01:40:57;;;;;;;2.40;1.50;;;;;;;;;;6231778;28;20297;-71
2023/09/15 01:44:00;;;;;;;2.15;1.73;;;;;;;;;;6247885;28;20403;-69
2023/09/15 01:47:08;;;;;;;1.75;1.65;;;;;;;;;;6233138;28;20418;-69
2023/09/15 01:50:13;;;;;;;3.60;1.70;;;;;;;;;;6232707;28;20485;-70
2023/09/15 01:53:16;;;;;;;6.20;1.63;;;;;;;;;;6232856;28;20292;-69
2023/09/15 01:56:23;;;;;;;1.58;1.48;;;;;;;;;;6247816;28;20584;-70
2023/09/15 01:59:27;;;;;;;1.45;1.45;;;;;;;;;;6247469;28;20308;-69
2023/09/15 02:02:33;;;;;;;1.58;1.48;;;;;;;;;;6245943;28;20331;-69
2023/09/15 02:05:36;;;;;;;1.65;1.55;;;;;;;;;;6231235;28;20296;-70
2023/09/15 02:08:40;;;;;;;2.53;1.83;;;;;;;;;;6247279;28;20307;-70
2023/09/15 02:11:44;;;;;;;1.92;1.77;;;;;;;;;;6232925;28;20308;-71
2023/09/15 02:14:48;;;;;;;1.70;1.58;;;;;;;;;;6247322;28;20316;-71
2023/09/15 02:17:53;;;;;;;1.80;1.60;;;;;;;;;;6232516;28;20316;-69
2023/09/15 02:20:57;;;;;;;1.60;1.50;;;;;;;;;;6231309;28;20298;-70
2023/09/15 02:24:02;;;;;;;3.33;1.30;;;;;;;;;;6247122;28;20421;-71
2023/09/15 02:27:06;;;;;;;1.63;1.48;;;;;;;;;;6232909;28;20463;-70
2023/09/15 02:30:10;;;;;;;1.35;1.35;;;;;;;;;;6247344;28;20296;-69
2023/09/15 02:33:16;;;;;;;1.65;1.40;;;;;;;;;;6232162;28;20304;-69
2023/09/15 02:36:21;;;;;;;1.77;1.35;;;;;;;;;;6230936;28;20299;-70
2023/09/15 02:39:25;;;;;;;2.85;1.33;;;;;;;;;;6233735;28;20296;-69
2023/09/15 02:42:29;;;;;;;1.33;1.20;;;;;;;;;;6233818;28;20288;-70
2023/09/15 02:45:35;;;;;;;1.67;1.35;;;;;;;;;;6232120;28;20433;-70
2023/09/15 02:48:43;;;;;;;1.95;1.40;;;;;;;;;;6246710;28;20299;-72
2023/09/15 02:51:48;;;;;;;3.75;1.33;;;;;;;;;;6247306;28;20309;-71
2023/09/15 02:54:52;;;;;;;1.65;1.60;;;;;;;;;;6251104;28;20331;-70
2023/09/15 02:57:57;;;;;;;1.55;1.45;;;;;;;;;;6251822;28;20453;-70
2023/09/15 03:01:11;;;;;;;4.30;1.60;;;;;;;;;;6237257;28;20296;-69
2023/09/15 03:04:19;;;;;;;1.30;1.30;;;;;;;;;;6230124;28;20300;-70
2023/09/15 03:07:23;;;;;;;1.33;1.33;;;;;;;;;;6243748;28;20301;-70
2023/09/15 03:10:27;;;;;;;1.50;1.40;;;;;;;;;;6216619;28;20499;-70
2023/09/15 03:13:30;;;;;;;1.30;1.30;;;;;;;;;;6251230;28;20292;-69
2023/09/15 03:16:35;;;;;;;1.48;1.35;;;;;;;;;;6252039;28;20359;-69
2023/09/15 03:19:41;;;;;;;1.27;1.23;;;;;;;;;;6242566;28;20505;-71
2023/09/15 03:22:45;;;;;;;1.67;1.38;;;;;;;;;;6211816;28;20301;-69
2023/09/15 03:25:49;;;;;;;1.58;1.50;;;;;;;;;;6209888;28;20284;-70
2023/09/15 03:28:53;;;;;;;1.40;1.30;;;;;;;;;;6210444;28;20369;-70
2023/09/15 03:31:58;;;;;;;1.30;1.30;;;;;;;;;;6243031;28;20449;-70
2023/09/15 03:35:05;;;;;;;1.10;1.10;;;;;;;;;;6210696;28;20300;-69
2023/09/15 03:38:10;;;;;;;1.23;1.23;;;;;;;;;;6234193;28;20296;-69
2023/09/15 03:41:14;;;;;;;1.67;1.20;;;;;;;;;;6250829;28;20233;-70
2023/09/15 03:44:19;;;;;;;2.05;1.02;;;;;;;;;;6235342;28;20291;-69
2023/09/15 03:47:23;;;;;;;1.40;1.40;;;;;;;;;;6234354;28;20494;-70
2023/09/15 03:50:29;;;;;;;2.33;1.40;;;;;;;;;;6250308;28;20844;-70
2023/09/15 03:53:33;;;;;;;1.30;1.20;;;;;;;;;;6250622;28;20292;-70
2023/09/15 03:56:37;;;;;;;3.70;1.42;;;;;;;;;;6235589;28;20593;-70
2023/09/15 03:59:41;;;;;;;1.23;1.17;;;;;;;;;;6233451;28;20295;-69
2023/09/15 04:02:45;;;;;;;2.60;1.30;;;;;;;;;;6232133;28;20403;-69
2023/09/15 04:05:50;;;;;;;2.47;1.40;;;;;;;;;;6233179;28;20292;-70
2023/09/15 04:08:55;;;;;;;2.30;1.42;;;;;;;;;;6233446;28;20300;-71
2023/09/15 04:11:59;;;;;;;1.52;1.42;;;;;;;;;;6250702;28;20620;-69
2023/09/15 04:15:04;;;;;;;4.00;1.10;;;;;;;;;;6235014;28;20538;-71
2023/09/15 04:18:09;;;;;;;1.55;1.40;;;;;;;;;;6234620;28;20296;-70
2023/09/15 04:21:15;;;;;;;4.15;1.20;;;;;;;;;;6250129;28;20303;-69
2023/09/15 04:24:19;;;;;;;1.40;1.30;;;;;;;;;;6249476;28;20300;-70
2023/09/15 04:27:23;;;;;;;1.95;1.20;;;;;;;;;;6250454;28;20308;-72
2023/09/15 04:30:26;;;;;;;1.05;1.05;;;;;;;;;;6234493;28;20332;-69
2023/09/15 04:33:32;;;;;;;1.00;1.00;;;;;;;;;;6249475;28;20300;-69
2023/09/15 04:36:38;;;;;;;2.75;1.40;;;;;;;;;;6233726;28;20311;-69
2023/09/15 04:39:42;;;;;;;1.17;1.02;;;;;;;;;;6249549;28;20312;-69
2023/09/15 04:42:46;;;;;;;1.67;1.13;;;;;;;;;;6249151;28;20308;-71
2023/09/15 04:45:50;;;;;;;1.30;1.30;;;;;;;;;;6232603;28;20304;-69
2023/09/15 04:48:54;;;;;;;2.58;1.23;;;;;;;;;;6248982;28;20307;-70
2023/09/15 04:51:59;;;;;;;3.53;1.45;;;;;;;;;;6232856;28;20307;-68
2023/09/15 04:55:05;;;;;;;2.75;1.10;;;;;;;;;;6232116;28;20304;-69
2023/09/15 04:58:12;;;;;;;5.30;2.03;;;;;;;;;;6248263;28;20288;-68
2023/09/15 05:01:19;;;;;;;3.05;1.20;;;;;;;;;;6232454;28;20430;-70
2023/09/15 05:04:23;;;;;;;3.08;1.13;;;;;;;;;;6232120;28;20565;-71
2023/09/15 05:07:28;;;;;;;2.45;1.10;;;;;;;;;;6249180;28;20296;-70
2023/09/15 05:10:32;;;;;;;1.50;1.40;;;;;;;;;;6231688;28;20301;-71
2023/09/15 05:13:36;;;;;;;5.10;1.17;;;;;;;;;;6233759;28;20284;-69
2023/09/15 05:16:40;;;;;;;1.23;1.00;;;;;;;;;;6233901;28;20859;-70
2023/09/15 05:19:44;;;;;;;1.38;1.25;;;;;;;;;;6247938;28;20304;-69
2023/09/15 05:22:49;;;;;;;1.20;1.10;;;;;;;;;;6231275;28;20295;-70
2023/09/15 05:25:53;;;;;;;4.47;1.00;;;;;;;;;;6233958;28;20253;-69
2023/09/15 05:29:02;;;;;;;0.90;0.90;;;;;;;;;;6248120;28;20612;-71
2023/09/15 05:32:06;;;;;;;1.73;1.10;;;;;;;;;;6233278;28;20312;-70
2023/09/15 05:35:11;;;;;;;1.00;1.00;;;;;;;;;;6248451;28;20545;-70
2023/09/15 05:38:16;;;;;;;1.48;1.10;;;;;;;;;;6232391;28;20300;-70
2023/09/15 05:41:20;;;;;;;4.20;1.33;;;;;;;;;;6248561;28;20396;-69
2023/09/15 05:44:24;;;;;;;2.70;1.38;;;;;;;;;;6233078;28;20300;-70
2023/09/15 05:47:28;;;;;;;1.30;1.20;;;;;;;;;;6233402;28;20304;-71
2023/09/15 05:50:32;;;;;;;8.40;1.50;;;;;;;;;;6232664;28;20572;-69
2023/09/15 05:53:37;;;;;;;3.85;1.13;;;;;;;;;;6232819;28;20304;-70
2023/09/15 05:56:41;;;;;;;1.23;1.08;;;;;;;;;;6232921;28;20303;-71
2023/09/15 05:59:46;;;;;;;2.13;1.20;;;;;;;;;;6232472;28;20308;-68
2023/09/15 06:02:50;;;;;;;4.82;1.60;;;;;;;;;;6230537;28;20324;-68
2023/09/15 06:05:54;;;;;;;2.75;1.38;;;;;;;;;;6233008;28;20304;-68
2023/09/15 06:08:59;;;;;;;4.47;1.40;;;;;;;;;;6232316;28;20300;-70
2023/09/15 06:12:03;;;;;;;3.33;1.55;;;;;;;;;;6232790;28;20300;-67
2023/09/15 06:15:08;;;;;;;1.25;1.25;;;;;;;;;;6232208;28;20299;-68
2023/09/15 06:18:11;;;;;;;3.65;1.50;;;;;;;;;;6232394;28;20280;-69
2023/09/15 06:21:15;;;;;;;1.65;1.30;;;;;;;;;;6232939;28;20489;-69
2023/09/15 06:24:20;;;;;;;3.65;1.13;;;;;;;;;;6232152;28;20313;-71
2023/09/15 06:27:24;;;;;;;2.72;1.20;;;;;;;;;;6232106;28;20292;-70
2023/09/15 06:30:29;;;;;;;1.63;1.40;;;;;;;;;;6232189;28;20304;-71
2023/09/15 06:33:33;;;;;;;3.70;1.67;;;;;;;;;;6232027;28;20306;-70
2023/09/15 06:36:39;;;;;;;2.10;1.50;;;;;;;;;;6232843;28;20317;-72
2023/09/15 06:39:44;;;;;;;3.15;1.50;;;;;;;;;;6232337;28;20380;-70
2023/09/15 06:42:47;;;;;;;3.88;2.05;;;;;;;;;;6232120;28;20308;-73
2023/09/15 06:45:51;;;;;;;2.15;1.50;;;;;;;;;;6232612;28;20308;-70
2023/09/15 06:48:55;;;;;;;2.53;1.83;;;;;;;;;;6231865;28;20296;-69
2023/09/15 06:51:59;;;;;;;2.88;1.75;;;;;;;;;;6232465;28;20311;-69
2023/09/15 06:55:08;;;;;;;4.75;1.60;;;;;;;;;;6232422;28;20304;-70
2023/09/15 06:58:12;;;;;;;2.00;1.77;;;;;;;;;;6232027;28;20299;-72
2023/09/15 07:01:16;;;;;;;1.60;1.50;;;;;;;;;;6232431;28;20299;-70
2023/09/15 07:04:20;;;;;;;4.47;1.60;;;;;;;;;;6230289;28;20316;-69
2023/09/15 07:07:24;;;;;;;4.78;2.20;;;;;;;;;;6232393;28;20316;-70
2023/09/15 07:10:30;;;;;;;1.77;1.60;;;;;;;;;;6231603;28;20296;-70
2023/09/15 07:13:34;;;;;;;2.83;1.60;;;;;;;;;;6232035;28;20616;-70
2023/09/15 07:16:38;;;;;;;5.38;2.30;;;;;;;;;;6232613;28;20292;-69
2023/09/15 07:19:44;;;;;;;1.35;1.35;;;;;;;;;;6231799;28;20312;-70
2023/09/15 07:22:48;;;;;;;1.95;1.52;;;;;;;;;;6245524;28;20300;-69
2023/09/15 07:25:53;;;;;;;2.45;1.90;;;;;;;;;;6247225;28;20561;-70
2023/09/15 07:28:57;;;;;;;5.22;1.85;;;;;;;;;;6231584;28;20316;-69
2023/09/15 07:32:00;;;;;;;1.65;1.52;;;;;;;;;;6232441;28;20261;-70
2023/09/15 07:35:05;;;;;;;3.38;1.65;;;;;;;;;;6231227;28;20596;-71
2023/09/15 07:38:09;;;;;;;2.85;1.83;;;;;;;;;;6231298;28;20336;-70
2023/09/15 07:41:14;;;;;;;2.97;1.73;;;;;;;;;;6250748;28;20309;-69
2023/09/15 07:44:18;;;;;;;1.88;1.73;;;;;;;;;;6223546;28;20496;-68
2023/09/15 07:47:22;;;;;;;2.28;2.00;;;;;;;;;;6211545;28;20388;-69
2023/09/15 07:50:26;;;;;;;1.90;1.70;;;;;;;;;;6211236;28;20300;-70
2023/09/15 07:53:29;;;;;;;1.80;1.75;;;;;;;;;;6210872;28;20304;-69
2023/09/15 07:56:36;;;;;;;1.85;1.75;;;;;;;;;;6201507;28;20565;-71
2023/09/15 07:59:40;;;;;;;2.28;1.70;;;;;;;;;;6186384;28;20305;-71
2023/09/15 08:02:44;;;;;;;4.22;1.75;;;;;;;;;;6184620;28;20301;-70
2023/09/15 08:05:48;;;;;;;4.10;1.83;;;;;;;;;;6186688;28;20305;-71
2023/09/15 08:08:52;;;;;;;1.60;1.58;;;;;;;;;;6185796;28;20325;-70
2023/09/15 08:11:59;;;;;;;3.35;2.15;;;;;;;;;;6226836;28;20312;-70
2023/09/15 08:15:05;;;;;;;1.98;1.88;;;;;;;;;;6234465;28;20301;-69
2023/09/15 08:18:08;;;;;;;2.03;1.85;;;;;;;;;;6249090;28;20383;-71
2023/09/15 08:21:12;;;;;;;2.13;1.65;;;;;;;;;;6235116;28;20456;-69
2023/09/15 08:24:16;;;;;;;2.13;1.95;;;;;;;;;;6234214;28;20263;-69
2023/09/15 08:27:21;;;;;;;1.90;1.80;;;;;;;;;;6234801;28;20312;-69
2023/09/15 08:30:25;;;;;;;1.90;1.90;;;;;;;;;;6233946;28;20308;-69
2023/09/15 08:33:29;;;;;;;1.70;1.70;;;;;;;;;;6233731;28;20320;-71
2023/09/15 08:36:33;;;;;;;1.50;1.50;;;;;;;;;;6249379;28;20304;-70
2023/09/15 08:39:37;;;;;;;2.03;1.92;;;;;;;;;;6233912;28;20357;-69
2023/09/15 08:42:42;;;;;;;4.50;1.90;;;;;;;;;;6234233;28;20304;-70
2023/09/15 08:45:47;;;;;;;1.60;1.55;;;;;;;;;;6209822;28;20328;-70
2023/09/15 08:48:52;;;;;;;2.25;2.00;;;;;;;;;;6209195;28;20294;-69
2023/09/15 08:51:58;;;;;;;2.97;1.90;;;;;;;;;;6209321;28;20305;-69
2023/09/15 08:55:03;;;;;;;3.72;1.90;;;;;;;;;;6207781;28;20502;-70
2023/09/15 08:58:09;;;;;;;4.03;2.00;;;;;;;;;;6209225;28;20297;-69
2023/09/15 09:01:15;;;;;;;1.90;1.70;;;;;;;;;;6209606;28;20553;-70
2023/09/15 09:04:19;;;;;;;2.22;2.00;;;;;;;;;;6207497;28;20324;-71
2023/09/15 09:07:23;;;;;;;2.25;1.60;;;;;;;;;;6209787;28;20293;-70
2023/09/15 09:10:28;;;;;;;1.80;1.80;;;;;;;;;;6217298;28;20441;-70
2023/09/15 09:13:34;;;;;;;2.55;1.88;;;;;;;;;;6232966;28;20296;-69
2023/09/15 09:16:47;;;;;;;1.92;1.73;;;;;;;;;;6231107;28;20288;-69
2023/09/15 09:19:51;;;;;;;2.67;1.90;;;;;;;;;;6232949;28;20315;-69
2023/09/15 09:22:55;;;;;;;2.30;1.80;;;;;;;;;;6233134;28;20249;-69
2023/09/15 09:26:00;;;;;;;2.90;2.10;;;;;;;;;;6233282;28;20273;-70
2023/09/15 09:29:05;;;;;;;2.63;1.98;;;;;;;;;;6233056;28;20440;-70
2023/09/15 09:32:13;;;;;;;1.98;1.88;;;;;;;;;;6233266;28;20296;-70
2023/09/15 09:35:17;;;;;;;3.78;1.80;;;;;;;;;;6232459;28;20348;-70
2023/09/15 09:38:22;;;;;;;2.35;1.95;;;;;;;;;;6232351;28;20300;-69
2023/09/15 09:41:28;;;;;;;1.92;1.83;;;;;;;;;;6233009;28;20288;-70
2023/09/15 09:44:36;;;;;;;2.00;2.00;;;;;;;;;;6239312;28;20312;-70
2023/09/15 09:47:40;;;;;;;3.50;1.90;;;;;;;;;;6209726;28;20297;-70
2023/09/15 09:50:44;;;;;;;2.72;1.95;;;;;;;;;;6206252;28;20308;-69
2023/09/15 09:53:54;;;;;;;4.15;1.80;;;;;;;;;;6207657;28;20301;-69
2023/09/15 09:56:58;;;;;;;2.75;2.00;;;;;;;;;;6207829;28;20313;-70
2023/09/15 10:00:04;;;;;;;1.95;1.67;;;;;;;;;;6207435;28;20296;-70
2023/09/15 10:03:08;;;;;;;3.85;1.95;;;;;;;;;;6205090;28;20320;-69
2023/09/15 10:06:13;;;;;;;1.90;1.50;;;;;;;;;;6207910;28;20323;-70
2023/09/15 10:09:18;;;;;;;7.10;2.05;;;;;;;;;;6222330;28;20416;-69
2023/09/15 10:12:24;;;;;;;4.53;1.67;;;;;;;;;;6231918;28;20347;-69
2023/09/15 10:15:29;;;;;;;1.50;1.50;;;;;;;;;;6232278;28;20288;-70
2023/09/15 10:18:33;;;;;;;2.08;1.85;;;;;;;;;;6231899;28;20296;-69
2023/09/15 10:21:38;;;;;;;4.55;1.70;;;;;;;;;;6232613;28;20304;-70
2023/09/15 10:24:44;;;;;;;3.35;1.55;;;;;;;;;;6233559;28;20307;-69
2023/09/15 10:27:48;;;;;;;1.70;1.67;;;;;;;;;;6231919;28;20396;-69
2023/09/15 10:30:56;;;;;;;1.83;1.40;;;;;;;;;;6232325;28;20303;-70
2023/09/15 10:34:01;;;;;;;2.35;2.15;;;;;;;;;;6231248;28;20724;-69
2023/09/15 10:37:05;;;;;;;2.85;1.55;;;;;;;;;;6232362;28;20295;-69
2023/09/15 10:40:10;;;;;;;2.00;1.90;;;;;;;;;;6232031;28;20308;-69
2023/09/15 10:43:15;;;;;;;1.60;1.50;;;;;;;;;;6228657;28;20637;-70
2023/09/15 10:46:21;;;;;;;1.83;1.60;;;;;;;;;;6207709;28;20312;-68
2023/09/15 10:49:24;;;;;;;5.40;1.90;;;;;;;;;;6207355;28;20300;-69
2023/09/15 10:52:35;;;;;;;4.03;1.70;;;;;;;;;;6207810;28;20332;-68
2023/09/15 10:55:40;;;;;;;3.38;1.70;;;;;;;;;;6207155;28;20305;-69
2023/09/15 10:58:46;;;;;;;1.60;1.60;;;;;;;;;;6207391;28;20301;-70
2023/09/15 11:01:52;;;;;;;2.22;2.00;;;;;;;;;;6205360;28;20277;-76
2023/09/15 11:04:56;;;;;;;3.55;1.90;;;;;;;;;;6206884;28;20313;-70
2023/09/15 11:08:01;;;;;;;1.70;1.60;;;;;;;;;;6206572;28;20250;-70
2023/09/15 11:11:09;;;;;;;2.60;1.75;;;;;;;;;;6220780;28;20261;-69
2023/09/15 11:14:16;;;;;;;1.60;1.50;;;;;;;;;;6233127;28;20292;-71
2023/09/15 11:17:21;;;;;;;9.80;1.95;;;;;;;;;;6236063;28;20295;-69
2023/09/15 11:20:25;;;;;;;5.30;1.75;;;;;;;;;;6235291;28;20323;-70
2023/09/15 11:23:29;;;;;;;5.25;1.90;;;;;;;;;;6235350;28;20321;-69
2023/09/15 11:26:33;;;;;;;14.90;2.05;;;;;;;;;;6235821;28;20300;-72
2023/09/15 11:29:37;;;;;;;1.50;1.40;;;;;;;;;;6235537;28;20296;-69
2023/09/15 11:32:44;;;;;;;3.38;1.50;;;;;;;;;;6235537;28;20292;-71
2023/09/15 11:35:48;;;;;;;3.45;1.50;;;;;;;;;;6186470;28;20293;-69
2023/09/15 11:38:52;;;;;;;2.70;1.52;;;;;;;;;;6187091;28;20381;-69
2023/09/15 11:41:56;;;;;;;2.92;1.48;;;;;;;;;;6187459;28;20336;-71
2023/09/15 11:45:00;;;;;;;1.40;1.40;;;;;;;;;;6186445;28;20313;-72
2023/09/15 11:48:06;;;;;;;1.58;1.40;;;;;;;;;;6186558;28;20330;-69
2023/09/15 11:51:10;;;;;;;1.85;1.40;;;;;;;;;;6186066;28;20433;-69
2023/09/15 11:54:14;;;;;;;1.35;1.30;;;;;;;;;;6186673;28;20305;-70
2023/09/15 11:57:20;;;;;;;3.42;1.80;;;;;;;;;;6186472;28;20313;-69
2023/09/15 12:00:27;;;;;;;2.53;1.80;;;;;;;;;;6186484;28;20334;-70
2023/09/15 12:03:33;;;;;;;6.57;1.42;;;;;;;;;;6184584;28;20582;-70
2023/09/15 12:06:37;;;;;;;2.47;1.92;;;;;;;;;;6186530;28;20309;-72
2023/09/15 12:09:41;;;;;;;1.60;1.50;;;;;;;;;;6185658;28;20305;-69
2023/09/15 12:12:45;;;;;;;5.05;1.60;;;;;;;;;;6177091;28;20314;-69
2023/09/15 12:15:49;;;;;;;4.40;1.80;;;;;;;;;;6186355;28;20301;-69
2023/09/15 12:18:55;;;;;;;3.00;1.80;;;;;;;;;;6185777;28;20522;-69
2023/09/15 12:22:00;;;;;;;2.95;1.60;;;;;;;;;;6186281;28;20352;-70
2023/09/15 12:25:04;;;;;;;2.33;1.70;;;;;;;;;;6185080;28;20302;-69
2023/09/15 12:28:08;;;;;;;3.22;1.70;;;;;;;;;;6185309;28;20322;-70
2023/09/15 12:31:20;;;;;;;1.60;1.58;;;;;;;;;;6186056;28;20369;-69
2023/09/15 12:34:27;;;;;;;2.13;1.45;;;;;;;;;;6211972;28;20316;-70
2023/09/15 12:37:32;;;;;;;2.67;1.48;;;;;;;;;;6234806;28;20296;-69
2023/09/15 12:40:36;;;;;;;3.72;1.65;;;;;;;;;;6234742;28;20316;-69
2023/09/15 12:43:39;;;;;;;3.75;1.50;;;;;;;;;;6233652;28;20292;-69
2023/09/15 12:46:43;;;;;;;5.05;1.65;;;;;;;;;;6234728;28;20320;-69
2023/09/15 12:49:48;;;;;;;1.80;1.70;;;;;;;;;;6231829;28;20311;-69
2023/09/15 12:52:54;;;;;;;2.42;1.60;;;;;;;;;;6232424;28;20307;-69
2023/09/15 12:56:00;;;;;;;2.05;1.60;;;;;;;;;;6234207;28;20245;-69
2023/09/15 12:59:04;;;;;;;1.38;1.38;;;;;;;;;;6233392;28;20364;-69
2023/09/15 13:02:08;;;;;;;1.65;1.30;;;;;;;;;;6231890;28;20469;-69
2023/09/15 13:05:13;;;;;;;2.72;1.60;;;;;;;;;;6233580;28;20288;-71
2023/09/15 13:08:17;;;;;;;3.38;1.77;;;;;;;;;;6232514;28;20300;-71
2023/09/15 13:11:21;;;;;;;1.77;1.60;;;;;;;;;;6233805;28;20292;-71
2023/09/15 13:14:25;;;;;;;1.77;1.50;;;;;;;;;;6233146;28;20376;-69
2023/09/15 13:17:30;;;;;;;2.42;1.60;;;;;;;;;;6233702;28;20323;-69
2023/09/15 13:20:35;;;;;;;2.78;1.67;;;;;;;;;;6232768;28;20373;-69
2023/09/15 13:23:39;;;;;;;3.72;1.30;;;;;;;;;;6232764;28;20300;-70
2023/09/15 13:26:42;;;;;;;2.28;1.40;;;;;;;;;;6233682;28;20251;-70
2023/09/15 13:29:46;;;;;;;1.50;1.50;;;;;;;;;;6232888;28;20303;-70
2023/09/15 13:32:50;;;;;;;1.50;1.50;;;;;;;;;;6232375;28;20300;-69
2023/09/15 13:35:56;;;;;;;2.70;1.50;;;;;;;;;;6248236;28;20304;-68
2023/09/15 13:39:00;;;;;;;1.33;1.20;;;;;;;;;;6232095;28;20323;-69
2023/09/15 13:42:04;;;;;;;4.05;1.60;;;;;;;;;;6232967;28;20300;-70
2023/09/15 13:45:11;;;;;;;5.05;1.70;;;;;;;;;;6232406;28;20301;-69
2023/09/15 13:48:16;;;;;;;4.85;1.40;;;;;;;;;;6232089;28;20304;-69
2023/09/15 13:51:21;;;;;;;3.50;1.80;;;;;;;;;;6232827;28;20324;-71
2023/09/15 13:54:42;;;;;;;1.27;1.27;;;;;;;;;;6232424;28;20381;-71
2023/09/15 13:57:46;;;;;;;2.15;1.73;;;;;;;;;;6231857;28;20308;-68
2023/09/15 14:00:58;;;;;;;1.80;1.70;;;;;;;;;;6232394;28;20345;-71
2023/09/15 14:04:01;;;;;;;2.78;1.55;;;;;;;;;;6230893;28;20296;-69
2023/09/15 14:07:07;;;;;;;3.22;1.40;;;;;;;;;;6233001;28;20292;-70
2023/09/15 14:10:11;;;;;;;3.40;1.55;;;;;;;;;;6232002;28;20304;-71
2023/09/15 14:13:15;;;;;;;1.50;1.50;;;;;;;;;;6230462;28;20395;-71
2023/09/15 14:16:19;;;;;;;1.35;1.35;;;;;;;;;;6232603;28;20308;-70
2023/09/15 14:19:23;;;;;;;1.60;1.42;;;;;;;;;;6231704;28;20308;-68
2023/09/15 14:22:29;;;;;;;1.35;1.25;;;;;;;;;;6232591;28;20308;-68
2023/09/15 14:25:33;;;;;;;2.40;1.70;;;;;;;;;;6231727;28;20312;-70
2023/09/15 14:28:37;;;;;;;4.10;1.60;;;;;;;;;;6231854;28;20231;-69
2023/09/15 14:31:42;;;;;;;2.55;1.70;;;;;;;;;;6232257;28;20296;-69
2023/09/15 14:34:46;;;;;;;1.60;1.50;;;;;;;;;;6230734;28;20318;-71
2023/09/15 14:37:51;;;;;;;1.20;1.20;;;;;;;;;;6231724;28;20253;-68
2023/09/15 14:40:55;;;;;;;300.08;13.77;;;;;;;;;;6231918;28;20252;-67
2023/09/15 14:43:58;;;;;;;1.95;1.10;;;;;;;;;;6231121;28;20303;-68
2023/09/15 14:47:02;;;;;;;1.75;1.02;;;;;;;;;;6231835;28;20480;-69
2023/09/15 14:50:07;;;;;;;1.75;1.45;;;;;;;;;;6233671;28;20433;-68
2023/09/15 14:53:12;;;;;;;1.30;1.30;;;;;;;;;;6236484;28;20300;-70
2023/09/15 14:56:16;;;;;;;1.35;1.35;;;;;;;;;;6236359;28;20299;-68
2023/09/15 14:59:20;;;;;;;1.50;1.40;;;;;;;;;;6235984;28;20303;-69
2023/09/15 15:02:23;;;;;;;1.70;1.48;;;;;;;;;;6234843;28;20304;-69
2023/09/15 15:05:28;;;;;;;1.15;1.15;;;;;;;;;;6236088;28;20300;-69
2023/09/15 15:08:33;;;;;;;1.88;1.40;;;;;;;;;;6235520;28;20305;-67
2023/09/15 15:11:37;;;;;;;2.58;1.60;;;;;;;;;;6236317;28;20288;-67
2023/09/15 15:14:41;;;;;;;1.30;1.30;;;;;;;;;;6235898;28;20303;-68
2023/09/15 15:17:45;;;;;;;4.18;1.67;;;;;;;;;;6235541;28;20299;-68
2023/09/15 15:20:50;;;;;;;1.50;1.50;;;;;;;;;;6236099;28;20304;-68
2023/09/15 15:23:55;;;;;;;3.25;1.40;;;;;;;;;;6235908;28;20384;-67
2023/09/15 15:26:59;;;;;;;3.13;1.38;;;;;;;;;;6236099;28;20304;-69
2023/09/15 15:30:03;;;;;;;1.60;1.60;;;;;;;;;;6237047;28;20312;-68
2023/09/15 15:33:07;;;;;;;8.15;1.77;;;;;;;;;;6235446;28;20330;-69
2023/09/15 15:36:11;;;;;;;1.60;1.60;;;;;;;;;;6235714;28;20300;-69
2023/09/15 15:39:17;;;;;;;2.03;1.67;;;;;;;;;;6235405;28;20301;-71
2023/09/15 15:42:21;;;;;;;6.97;1.90;;;;;;;;;;6236037;28;20300;-70
2023/09/15 15:45:25;;;;;;;2.55;1.70;;;;;;;;;;6235713;28;20331;-67
2023/09/15 15:48:30;;;;;;;4.97;1.73;;;;;;;;;;6235482;28;20497;-69
2023/09/15 15:51:34;;;;;;;3.45;1.85;;;;;;;;;;6236017;28;20292;-69
2023/09/15 15:54:39;;;;;;;3.45;1.92;;;;;;;;;;6235414;28;20324;-68
2023/09/15 15:57:43;;;;;;;2.00;1.90;;;;;;;;;;6235909;28;20340;-68
2023/09/15 16:00:47;;;;;;;3.70;1.95;;;;;;;;;;6235086;28;20300;-67
2023/09/15 16:03:51;;;;;;;5.55;2.13;;;;;;;;;;6233564;28;20474;-70
2023/09/15 16:06:55;;;;;;;4.20;1.75;;;;;;;;;;6235726;28;20303;-67
2023/09/15 16:10:00;;;;;;;3.55;1.83;;;;;;;;;;6235106;28;20327;-69
2023/09/15 16:13:05;;;;;;;2.42;2.05;;;;;;;;;;6235301;28;20324;-67
2023/09/15 16:16:08;;;;;;;3.80;2.00;;;;;;;;;;6235558;28;20296;-67
2023/09/15 16:19:12;;;;;;;2.25;2.15;;;;;;;;;;6235017;28;20296;-69
2023/09/15 16:22:19;;;;;;;7.40;2.72;;;;;;;;;;6235277;28;20304;-68
2023/09/15 16:25:24;;;;;;;3.35;3.10;;;;;;;;;;6235017;28;20302;-67
2023/09/15 16:28:28;;;;;;;5.63;2.63;;;;;;;;;;6234727;28;20252;-69
2023/09/15 16:31:32;;;;;;;6.63;2.80;;;;;;;;;;6235113;28;20396;-70
2023/09/15 16:34:38;;;;;;;9.25;2.65;;;;;;;;;;6234080;28;20600;-71
2023/09/15 16:37:41;;;;;;;11.43;2.72;;;;;;;;;;6235037;28;20604;-69
2023/09/15 16:40:47;;;;;;;9.52;2.63;;;;;;;;;;6233945;28;20612;-68
2023/09/15 16:43:51;;;;;;;5.05;2.70;;;;;;;;;;6233322;28;20502;-69
2023/09/15 16:46:55;;;;;;;8.13;2.70;;;;;;;;;;6234837;28;20257;-70
2023/09/15 16:49:59;;;;;;;4.20;3.40;;;;;;;;;;6234055;28;20308;-69
2023/09/15 16:53:03;;;;;;;2.78;2.55;;;;;;;;;;6233889;28;20292;-71
2023/09/15 16:56:12;;;;;;;7.63;3.03;;;;;;;;;;6234649;28;20304;-70
2023/09/15 16:59:16;;;;;;;7.55;3.42;;;;;;;;;;6233686;28;20296;-68
2023/09/15 17:02:20;;;;;;;3.85;2.88;;;;;;;;;;6232196;28;20300;-69
2023/09/15 17:05:24;;;;;;;8.35;4.03;;;;;;;;;;6249098;28;20288;-69
2023/09/15 17:08:27;;;;;;;7.93;4.00;;;;;;;;;;6233608;28;20311;-68
2023/09/15 17:11:34;;;;;;;6.00;3.22;;;;;;;;;;6233673;28;20296;-71
2023/09/15 17:14:38;;;;;;;9.43;4.07;;;;;;;;;;6233443;28;20292;-71
2023/09/15 17:17:41;;;;;;;7.90;3.97;;;;;;;;;;6233676;28;20483;-69
2023/09/15 17:20:48;;;;;;;11.68;4.18;;;;;;;;;;6232870;28;20308;-69
2023/09/15 17:23:52;;;;;;;6.90;3.90;;;;;;;;;;6233043;28;20597;-69
2023/09/15 17:26:58;;;;;;;14.40;5.68;;;;;;;;;;6233734;28;20319;-68
2023/09/15 17:30:02;;;;;;;12.90;4.95;;;;;;;;;;6233372;28;20237;-69
2023/09/15 17:33:05;;;;;;;14.98;6.13;;;;;;;;;;6232823;28;20303;-68
2023/09/15 17:36:13;;;;;;;14.50;4.75;;;;;;;;;;6233435;28;20307;-69
2023/09/15 17:39:17;;;;;;;6.80;3.70;;;;;;;;;;6233097;28;20300;-69
2023/09/15 17:42:23;;;;;;;6.78;3.58;;;;;;;;;;6233667;28;20292;-68
2023/09/15 17:45:26;;;;;;;7.05;4.57;;;;;;;;;;6232772;28;20304;-69
2023/09/15 17:48:30;;;;;;;10.80;4.25;;;;;;;;;;6233022;28;20316;-69
2023/09/15 17:51:34;;;;;;;9.55;3.95;;;;;;;;;;6233329;28;20307;-69
2023/09/15 17:54:38;;;;;;;8.52;4.38;;;;;;;;;;6232574;28;20365;-68
2023/09/15 17:57:46;;;;;;;6.18;4.38;;;;;;;;;;6248565;28;20305;-69
2023/09/15 18:00:50;;;;;;;6.05;3.25;;;;;;;;;;6232730;28;20308;-69
2023/09/15 18:03:54;;;;;;;5.85;4.30;;;;;;;;;;6231191;28;20508;-68
2023/09/15 18:06:58;;;;;;;8.32;4.07;;;;;;;;;;6231500;28;20391;-69
2023/09/15 18:10:02;;;;;;;5.97;3.55;;;;;;;;;;6232468;28;20487;-68
2023/09/15 18:13:07;;;;;;;3.70;3.10;;;;;;;;;;6232698;28;20296;-69
2023/09/15 18:16:16;;;;;;;10.35;3.72;;;;;;;;;;6232792;28;20454;-71
2023/09/15 18:19:20;;;;;;;7.45;4.65;;;;;;;;;;6232843;28;20320;-67
2023/09/15 18:22:24;;;;;;;11.60;4.88;;;;;;;;;;6234122;28;20307;-70
2023/09/15 18:25:28;;;;;;;9.05;4.60;;;;;;;;;;6231697;28;20296;-69
2023/09/15 18:28:33;;;;;;;7.53;3.92;;;;;;;;;;6232572;28;20296;-69